sensor_id;sensor_type;location;lat;lon;timestamp;P1;durP1;ratioP1;P2;durP2;ratioP2
17283;SDS011;8760;52.248;20.952;2022-08-19T00:00:47;14.40;;;8.60;;
17283;SDS011;8760;52.248;20.952;2022-08-19T00:03:15;9.63;;;8.30;;
17283;SDS011;8760;52.248;20.952;2022-08-19T00:05:42;13.15;;;8.77;;
17283;SDS011;8760;52.248;20.952;2022-08-19T00:08:09;12.88;;;8.23;;
17283;SDS011;8760;52.248;20.952;2022-08-19T00:10:35;16.55;;;8.60;;
17283;SDS011;8760;52.248;20.952;2022-08-19T00:13:02;13.88;;;9.63;;
17283;SDS011;8760;52.248;20.952;2022-08-19T00:15:31;14.02;;;9.13;;
17283;SDS011;8760;52.248;20.952;2022-08-19T00:17:58;12.13;;;8.65;;
17283;SDS011;8760;52.248;20.952;2022-08-19T00:20:24;13.38;;;8.77;;
17283;SDS011;8760;52.248;20.952;2022-08-19T00:22:51;11.85;;;9.63;;
17283;SDS011;8760;52.248;20.952;2022-08-19T00:25:19;9.77;;;8.63;;
17283;SDS011;8760;52.248;20.952;2022-08-19T00:27:46;10.30;;;9.00;;
17283;SDS011;8760;52.248;20.952;2022-08-19T00:30:13;13.15;;;8.60;;
17283;SDS011;8760;52.248;20.952;2022-08-19T00:32:41;13.95;;;9.15;;
17283;SDS011;8760;52.248;20.952;2022-08-19T00:35:08;12.80;;;8.77;;
17283;SDS011;8760;52.248;20.952;2022-08-19T00:37:36;18.13;;;9.68;;
17283;SDS011;8760;52.248;20.952;2022-08-19T00:40:08;14.10;;;9.15;;
17283;SDS011;8760;52.248;20.952;2022-08-19T00:42:36;9.57;;;8.57;;
17283;SDS011;8760;52.248;20.952;2022-08-19T00:45:03;13.90;;;9.55;;
17283;SDS011;8760;52.248;20.952;2022-08-19T00:47:37;15.40;;;9.45;;
17283;SDS011;8760;52.248;20.952;2022-08-19T00:50:05;9.85;;;8.88;;
17283;SDS011;8760;52.248;20.952;2022-08-19T00:52:35;14.05;;;9.10;;
17283;SDS011;8760;52.248;20.952;2022-08-19T00:55:06;15.50;;;8.85;;
17283;SDS011;8760;52.248;20.952;2022-08-19T00:57:35;12.68;;;8.45;;
17283;SDS011;8760;52.248;20.952;2022-08-19T01:00:07;14.10;;;8.73;;
17283;SDS011;8760;52.248;20.952;2022-08-19T01:02:37;12.13;;;8.35;;
17283;SDS011;8760;52.248;20.952;2022-08-19T01:05:07;13.00;;;8.82;;
17283;SDS011;8760;52.248;20.952;2022-08-19T01:07:37;11.40;;;8.23;;
17283;SDS011;8760;52.248;20.952;2022-08-19T01:10:06;11.10;;;9.05;;
17283;SDS011;8760;52.248;20.952;2022-08-19T01:12:36;13.52;;;9.18;;
17283;SDS011;8760;52.248;20.952;2022-08-19T01:15:04;15.50;;;9.48;;
17283;SDS011;8760;52.248;20.952;2022-08-19T01:17:32;12.90;;;9.48;;
17283;SDS011;8760;52.248;20.952;2022-08-19T01:20:00;19.75;;;9.25;;
17283;SDS011;8760;52.248;20.952;2022-08-19T01:22:28;12.18;;;8.68;;
17283;SDS011;8760;52.248;20.952;2022-08-19T01:24:57;16.33;;;9.10;;
17283;SDS011;8760;52.248;20.952;2022-08-19T01:27:24;13.43;;;9.40;;
17283;SDS011;8760;52.248;20.952;2022-08-19T01:29:51;16.27;;;10.00;;
17283;SDS011;8760;52.248;20.952;2022-08-19T01:32:18;14.02;;;10.02;;
17283;SDS011;8760;52.248;20.952;2022-08-19T01:34:45;14.23;;;10.13;;
17283;SDS011;8760;52.248;20.952;2022-08-19T01:37:12;14.02;;;10.43;;
17283;SDS011;8760;52.248;20.952;2022-08-19T01:39:42;15.60;;;10.18;;
17283;SDS011;8760;52.248;20.952;2022-08-19T01:42:09;19.85;;;12.68;;
17283;SDS011;8760;52.248;20.952;2022-08-19T01:44:37;15.65;;;11.65;;
17283;SDS011;8760;52.248;20.952;2022-08-19T01:47:05;16.38;;;12.25;;
17283;SDS011;8760;52.248;20.952;2022-08-19T01:49:34;15.98;;;11.55;;
17283;SDS011;8760;52.248;20.952;2022-08-19T01:52:01;13.02;;;11.50;;
17283;SDS011;8760;52.248;20.952;2022-08-19T01:54:28;14.77;;;11.52;;
17283;SDS011;8760;52.248;20.952;2022-08-19T01:56:57;19.15;;;10.85;;
17283;SDS011;8760;52.248;20.952;2022-08-19T01:59:27;14.30;;;10.75;;
17283;SDS011;8760;52.248;20.952;2022-08-19T02:01:54;20.33;;;11.80;;
17283;SDS011;8760;52.248;20.952;2022-08-19T02:04:21;13.18;;;11.05;;
17283;SDS011;8760;52.248;20.952;2022-08-19T02:06:48;14.05;;;11.20;;
17283;SDS011;8760;52.248;20.952;2022-08-19T02:09:15;14.82;;;10.77;;
17283;SDS011;8760;52.248;20.952;2022-08-19T02:11:42;15.57;;;9.90;;
17283;SDS011;8760;52.248;20.952;2022-08-19T02:14:10;11.50;;;9.75;;
17283;SDS011;8760;52.248;20.952;2022-08-19T02:16:38;13.77;;;9.73;;
17283;SDS011;8760;52.248;20.952;2022-08-19T02:19:05;12.20;;;10.00;;
17283;SDS011;8760;52.248;20.952;2022-08-19T02:21:32;15.63;;;10.70;;
17283;SDS011;8760;52.248;20.952;2022-08-19T02:24:00;13.02;;;9.88;;
17283;SDS011;8760;52.248;20.952;2022-08-19T02:26:27;11.18;;;10.02;;
17283;SDS011;8760;52.248;20.952;2022-08-19T02:28:54;11.52;;;10.30;;
17283;SDS011;8760;52.248;20.952;2022-08-19T02:31:24;12.13;;;10.20;;
17283;SDS011;8760;52.248;20.952;2022-08-19T02:33:53;16.83;;;11.18;;
17283;SDS011;8760;52.248;20.952;2022-08-19T02:36:20;14.55;;;10.55;;
17283;SDS011;8760;52.248;20.952;2022-08-19T02:38:47;20.83;;;11.05;;
17283;SDS011;8760;52.248;20.952;2022-08-19T02:41:15;13.38;;;11.25;;
17283;SDS011;8760;52.248;20.952;2022-08-19T02:43:43;14.45;;;11.88;;
17283;SDS011;8760;52.248;20.952;2022-08-19T02:46:11;12.93;;;11.57;;
17283;SDS011;8760;52.248;20.952;2022-08-19T02:48:47;17.02;;;11.73;;
17283;SDS011;8760;52.248;20.952;2022-08-19T02:51:18;14.60;;;10.35;;
17283;SDS011;8760;52.248;20.952;2022-08-19T02:53:46;14.23;;;11.45;;
17283;SDS011;8760;52.248;20.952;2022-08-19T02:56:13;14.30;;;10.70;;
17283;SDS011;8760;52.248;20.952;2022-08-19T02:58:40;11.73;;;10.50;;
17283;SDS011;8760;52.248;20.952;2022-08-19T03:01:08;11.45;;;10.15;;
17283;SDS011;8760;52.248;20.952;2022-08-19T03:03:35;14.25;;;10.55;;
17283;SDS011;8760;52.248;20.952;2022-08-19T03:06:05;14.50;;;11.00;;
17283;SDS011;8760;52.248;20.952;2022-08-19T03:08:34;13.27;;;10.90;;
17283;SDS011;8760;52.248;20.952;2022-08-19T03:11:02;14.82;;;11.23;;
17283;SDS011;8760;52.248;20.952;2022-08-19T03:13:29;13.88;;;11.25;;
17283;SDS011;8760;52.248;20.952;2022-08-19T03:15:56;17.17;;;10.57;;
17283;SDS011;8760;52.248;20.952;2022-08-19T03:18:23;11.13;;;10.00;;
17283;SDS011;8760;52.248;20.952;2022-08-19T03:20:51;16.60;;;11.15;;
17283;SDS011;8760;52.248;20.952;2022-08-19T03:23:20;11.45;;;10.15;;
17283;SDS011;8760;52.248;20.952;2022-08-19T03:25:48;11.70;;;10.55;;
17283;SDS011;8760;52.248;20.952;2022-08-19T03:28:16;13.40;;;10.77;;
17283;SDS011;8760;52.248;20.952;2022-08-19T03:30:54;14.10;;;11.50;;
17283;SDS011;8760;52.248;20.952;2022-08-19T03:33:23;17.10;;;11.43;;
17283;SDS011;8760;52.248;20.952;2022-08-19T03:35:59;16.80;;;11.38;;
17283;SDS011;8760;52.248;20.952;2022-08-19T03:38:28;14.40;;;11.52;;
17283;SDS011;8760;52.248;20.952;2022-08-19T03:40:55;12.95;;;10.80;;
17283;SDS011;8760;52.248;20.952;2022-08-19T03:43:22;15.00;;;11.07;;
17283;SDS011;8760;52.248;20.952;2022-08-19T03:45:48;15.18;;;11.52;;
17283;SDS011;8760;52.248;20.952;2022-08-19T03:48:25;12.45;;;11.13;;
17283;SDS011;8760;52.248;20.952;2022-08-19T03:50:51;12.82;;;10.98;;
17283;SDS011;8760;52.248;20.952;2022-08-19T03:53:18;14.35;;;11.75;;
17283;SDS011;8760;52.248;20.952;2022-08-19T03:55:46;12.70;;;11.40;;
17283;SDS011;8760;52.248;20.952;2022-08-19T03:58:13;13.10;;;11.70;;
17283;SDS011;8760;52.248;20.952;2022-08-19T04:00:41;15.43;;;11.30;;
17283;SDS011;8760;52.248;20.952;2022-08-19T04:03:08;13.85;;;11.40;;
17283;SDS011;8760;52.248;20.952;2022-08-19T04:05:34;15.95;;;11.30;;
17283;SDS011;8760;52.248;20.952;2022-08-19T04:08:03;13.90;;;10.80;;
17283;SDS011;8760;52.248;20.952;2022-08-19T04:10:30;12.20;;;10.57;;
17283;SDS011;8760;52.248;20.952;2022-08-19T04:13:02;15.65;;;11.38;;
17283;SDS011;8760;52.248;20.952;2022-08-19T04:15:30;11.98;;;10.63;;
17283;SDS011;8760;52.248;20.952;2022-08-19T04:18:00;14.52;;;10.82;;
17283;SDS011;8760;52.248;20.952;2022-08-19T04:20:27;18.90;;;10.93;;
17283;SDS011;8760;52.248;20.952;2022-08-19T04:22:55;12.98;;;10.80;;
17283;SDS011;8760;52.248;20.952;2022-08-19T04:25:23;15.85;;;10.60;;
17283;SDS011;8760;52.248;20.952;2022-08-19T04:27:49;13.27;;;11.18;;
17283;SDS011;8760;52.248;20.952;2022-08-19T04:30:18;15.38;;;11.05;;
17283;SDS011;8760;52.248;20.952;2022-08-19T04:32:45;16.88;;;10.98;;
17283;SDS011;8760;52.248;20.952;2022-08-19T04:35:12;11.82;;;10.38;;
17283;SDS011;8760;52.248;20.952;2022-08-19T04:37:38;16.20;;;10.82;;
17283;SDS011;8760;52.248;20.952;2022-08-19T04:40:06;12.63;;;11.13;;
17283;SDS011;8760;52.248;20.952;2022-08-19T04:42:51;14.40;;;10.10;;
17283;SDS011;8760;52.248;20.952;2022-08-19T04:45:19;13.10;;;11.38;;
17283;SDS011;8760;52.248;20.952;2022-08-19T04:47:46;14.30;;;11.00;;
17283;SDS011;8760;52.248;20.952;2022-08-19T04:50:14;12.75;;;11.43;;
17283;SDS011;8760;52.248;20.952;2022-08-19T04:52:41;12.00;;;10.75;;
17283;SDS011;8760;52.248;20.952;2022-08-19T04:55:08;13.60;;;10.45;;
17283;SDS011;8760;52.248;20.952;2022-08-19T04:57:35;13.38;;;10.38;;
17283;SDS011;8760;52.248;20.952;2022-08-19T05:00:05;16.13;;;9.75;;
17283;SDS011;8760;52.248;20.952;2022-08-19T05:02:35;12.25;;;10.30;;
17283;SDS011;8760;52.248;20.952;2022-08-19T05:05:03;12.65;;;10.23;;
17283;SDS011;8760;52.248;20.952;2022-08-19T05:07:31;11.30;;;9.10;;
17283;SDS011;8760;52.248;20.952;2022-08-19T05:09:58;12.25;;;9.60;;
17283;SDS011;8760;52.248;20.952;2022-08-19T05:12:25;11.45;;;9.05;;
17283;SDS011;8760;52.248;20.952;2022-08-19T05:14:52;10.52;;;8.77;;
17283;SDS011;8760;52.248;20.952;2022-08-19T05:17:19;18.33;;;10.45;;
17283;SDS011;8760;52.248;20.952;2022-08-19T05:19:47;14.98;;;9.32;;
17283;SDS011;8760;52.248;20.952;2022-08-19T05:22:31;12.98;;;9.60;;
17283;SDS011;8760;52.248;20.952;2022-08-19T05:25:01;13.10;;;9.90;;
17283;SDS011;8760;52.248;20.952;2022-08-19T05:27:31;11.63;;;9.48;;
17283;SDS011;8760;52.248;20.952;2022-08-19T05:29:58;16.15;;;10.23;;
17283;SDS011;8760;52.248;20.952;2022-08-19T05:32:26;16.67;;;9.48;;
17283;SDS011;8760;52.248;20.952;2022-08-19T05:34:54;11.10;;;9.48;;
17283;SDS011;8760;52.248;20.952;2022-08-19T05:37:21;14.38;;;9.88;;
17283;SDS011;8760;52.248;20.952;2022-08-19T05:39:51;16.10;;;10.32;;
17283;SDS011;8760;52.248;20.952;2022-08-19T05:42:19;16.70;;;10.00;;
17283;SDS011;8760;52.248;20.952;2022-08-19T05:44:47;12.80;;;9.25;;
17283;SDS011;8760;52.248;20.952;2022-08-19T05:47:15;14.90;;;9.43;;
17283;SDS011;8760;52.248;20.952;2022-08-19T05:49:44;13.38;;;9.80;;
17283;SDS011;8760;52.248;20.952;2022-08-19T05:52:13;15.52;;;10.65;;
17283;SDS011;8760;52.248;20.952;2022-08-19T05:54:41;15.20;;;12.05;;
17283;SDS011;8760;52.248;20.952;2022-08-19T05:57:10;12.48;;;9.82;;
17283;SDS011;8760;52.248;20.952;2022-08-19T05:59:37;16.63;;;10.20;;
17283;SDS011;8760;52.248;20.952;2022-08-19T06:02:04;15.00;;;10.18;;
17283;SDS011;8760;52.248;20.952;2022-08-19T06:04:32;12.02;;;8.75;;
17283;SDS011;8760;52.248;20.952;2022-08-19T06:06:59;12.35;;;9.18;;
17283;SDS011;8760;52.248;20.952;2022-08-19T06:09:28;15.57;;;9.35;;
17283;SDS011;8760;52.248;20.952;2022-08-19T06:11:55;14.00;;;9.80;;
17283;SDS011;8760;52.248;20.952;2022-08-19T06:14:28;16.90;;;8.10;;
17283;SDS011;8760;52.248;20.952;2022-08-19T06:16:58;12.50;;;8.65;;
17283;SDS011;8760;52.248;20.952;2022-08-19T06:19:27;13.07;;;8.38;;
17283;SDS011;8760;52.248;20.952;2022-08-19T06:21:55;12.43;;;8.68;;
17283;SDS011;8760;52.248;20.952;2022-08-19T06:24:24;15.30;;;8.77;;
17283;SDS011;8760;52.248;20.952;2022-08-19T06:26:54;13.10;;;8.60;;
17283;SDS011;8760;52.248;20.952;2022-08-19T06:29:22;9.65;;;8.20;;
17283;SDS011;8760;52.248;20.952;2022-08-19T06:31:51;12.48;;;8.60;;
17283;SDS011;8760;52.248;20.952;2022-08-19T06:34:21;17.83;;;9.32;;
17283;SDS011;8760;52.248;20.952;2022-08-19T06:36:48;14.15;;;9.45;;
17283;SDS011;8760;52.248;20.952;2022-08-19T06:39:17;19.80;;;13.60;;
17283;SDS011;8760;52.248;20.952;2022-08-19T06:41:47;16.60;;;9.18;;
17283;SDS011;8760;52.248;20.952;2022-08-19T06:44:16;13.40;;;8.65;;
17283;SDS011;8760;52.248;20.952;2022-08-19T06:46:43;10.73;;;8.13;;
17283;SDS011;8760;52.248;20.952;2022-08-19T06:49:10;14.30;;;8.45;;
17283;SDS011;8760;52.248;20.952;2022-08-19T06:51:39;15.48;;;8.55;;
17283;SDS011;8760;52.248;20.952;2022-08-19T06:54:07;12.32;;;8.18;;
17283;SDS011;8760;52.248;20.952;2022-08-19T06:56:34;16.27;;;9.20;;
17283;SDS011;8760;52.248;20.952;2022-08-19T06:59:01;9.65;;;7.57;;
17283;SDS011;8760;52.248;20.952;2022-08-19T07:01:31;13.20;;;8.07;;
17283;SDS011;8760;52.248;20.952;2022-08-19T07:04:02;10.63;;;8.50;;
17283;SDS011;8760;52.248;20.952;2022-08-19T07:06:29;10.93;;;8.15;;
17283;SDS011;8760;52.248;20.952;2022-08-19T07:08:57;13.93;;;8.05;;
17283;SDS011;8760;52.248;20.952;2022-08-19T07:11:24;11.45;;;8.18;;
17283;SDS011;8760;52.248;20.952;2022-08-19T07:13:51;16.33;;;8.27;;
17283;SDS011;8760;52.248;20.952;2022-08-19T07:16:18;11.77;;;8.10;;
17283;SDS011;8760;52.248;20.952;2022-08-19T07:18:47;12.77;;;8.93;;
17283;SDS011;8760;52.248;20.952;2022-08-19T07:21:14;12.60;;;8.95;;
17283;SDS011;8760;52.248;20.952;2022-08-19T07:23:43;13.18;;;8.98;;
17283;SDS011;8760;52.248;20.952;2022-08-19T07:26:11;12.32;;;8.75;;
17283;SDS011;8760;52.248;20.952;2022-08-19T07:28:40;11.43;;;8.15;;
17283;SDS011;8760;52.248;20.952;2022-08-19T07:31:09;14.50;;;8.05;;
17283;SDS011;8760;52.248;20.952;2022-08-19T07:33:36;29.08;;;8.27;;
17283;SDS011;8760;52.248;20.952;2022-08-19T07:36:05;13.40;;;8.13;;
17283;SDS011;8760;52.248;20.952;2022-08-19T07:38:36;12.90;;;7.63;;
17283;SDS011;8760;52.248;20.952;2022-08-19T07:41:05;8.35;;;7.55;;
17283;SDS011;8760;52.248;20.952;2022-08-19T07:43:33;12.77;;;8.20;;
17283;SDS011;8760;52.248;20.952;2022-08-19T07:45:59;12.18;;;8.13;;
17283;SDS011;8760;52.248;20.952;2022-08-19T07:48:26;13.65;;;7.93;;
17283;SDS011;8760;52.248;20.952;2022-08-19T07:50:54;12.05;;;7.75;;
17283;SDS011;8760;52.248;20.952;2022-08-19T07:53:24;14.45;;;7.78;;
17283;SDS011;8760;52.248;20.952;2022-08-19T07:55:51;13.75;;;8.10;;
17283;SDS011;8760;52.248;20.952;2022-08-19T07:58:19;14.50;;;8.10;;
17283;SDS011;8760;52.248;20.952;2022-08-19T08:00:48;10.93;;;7.78;;
17283;SDS011;8760;52.248;20.952;2022-08-19T08:03:17;11.40;;;8.05;;
17283;SDS011;8760;52.248;20.952;2022-08-19T08:05:45;10.88;;;8.00;;
17283;SDS011;8760;52.248;20.952;2022-08-19T08:08:31;16.70;;;7.72;;
17283;SDS011;8760;52.248;20.952;2022-08-19T08:11:16;10.60;;;7.85;;
17283;SDS011;8760;52.248;20.952;2022-08-19T08:13:44;12.40;;;8.07;;
17283;SDS011;8760;52.248;20.952;2022-08-19T08:16:11;12.73;;;7.95;;
17283;SDS011;8760;52.248;20.952;2022-08-19T08:18:37;13.35;;;8.73;;
17283;SDS011;8760;52.248;20.952;2022-08-19T08:21:07;10.73;;;7.25;;
17283;SDS011;8760;52.248;20.952;2022-08-19T08:23:35;14.68;;;8.15;;
17283;SDS011;8760;52.248;20.952;2022-08-19T08:26:02;13.02;;;7.68;;
17283;SDS011;8760;52.248;20.952;2022-08-19T08:28:29;12.50;;;7.63;;
17283;SDS011;8760;52.248;20.952;2022-08-19T08:30:57;8.38;;;7.53;;
17283;SDS011;8760;52.248;20.952;2022-08-19T08:33:25;11.90;;;8.20;;
17283;SDS011;8760;52.248;20.952;2022-08-19T08:35:54;13.88;;;8.30;;
17283;SDS011;8760;52.248;20.952;2022-08-19T08:38:20;12.07;;;7.85;;
17283;SDS011;8760;52.248;20.952;2022-08-19T08:40:50;13.82;;;7.88;;
17283;SDS011;8760;52.248;20.952;2022-08-19T08:43:23;17.63;;;7.88;;
17283;SDS011;8760;52.248;20.952;2022-08-19T08:45:55;12.55;;;8.48;;
17283;SDS011;8760;52.248;20.952;2022-08-19T08:48:30;10.27;;;8.38;;
17283;SDS011;8760;52.248;20.952;2022-08-19T08:51:03;9.65;;;8.48;;
17283;SDS011;8760;52.248;20.952;2022-08-19T08:53:35;10.48;;;8.18;;
17283;SDS011;8760;52.248;20.952;2022-08-19T08:56:04;27.20;;;9.20;;
17283;SDS011;8760;52.248;20.952;2022-08-19T08:58:39;9.10;;;8.10;;
17283;SDS011;8760;52.248;20.952;2022-08-19T09:01:12;13.57;;;8.20;;
17283;SDS011;8760;52.248;20.952;2022-08-19T09:03:40;14.57;;;7.97;;
17283;SDS011;8760;52.248;20.952;2022-08-19T09:06:12;12.10;;;8.63;;
17283;SDS011;8760;52.248;20.952;2022-08-19T09:08:47;11.23;;;8.30;;
17283;SDS011;8760;52.248;20.952;2022-08-19T09:11:33;17.85;;;8.20;;
17283;SDS011;8760;52.248;20.952;2022-08-19T09:14:09;13.98;;;8.32;;
17283;SDS011;8760;52.248;20.952;2022-08-19T09:16:41;15.32;;;8.15;;
17283;SDS011;8760;52.248;20.952;2022-08-19T09:19:08;12.07;;;8.27;;
17283;SDS011;8760;52.248;20.952;2022-08-19T09:21:36;12.82;;;8.10;;
17283;SDS011;8760;52.248;20.952;2022-08-19T09:24:04;11.90;;;8.02;;
17283;SDS011;8760;52.248;20.952;2022-08-19T09:26:33;12.77;;;8.25;;
17283;SDS011;8760;52.248;20.952;2022-08-19T09:29:00;9.80;;;7.22;;
17283;SDS011;8760;52.248;20.952;2022-08-19T09:31:30;9.60;;;6.72;;
17283;SDS011;8760;52.248;20.952;2022-08-19T09:33:57;12.15;;;7.18;;
17283;SDS011;8760;52.248;20.952;2022-08-19T09:36:27;10.98;;;6.82;;
17283;SDS011;8760;52.248;20.952;2022-08-19T09:38:57;9.68;;;6.57;;
17283;SDS011;8760;52.248;20.952;2022-08-19T09:41:25;13.25;;;6.65;;
17283;SDS011;8760;52.248;20.952;2022-08-19T09:43:54;10.50;;;6.43;;
17283;SDS011;8760;52.248;20.952;2022-08-19T09:46:22;12.98;;;6.88;;
17283;SDS011;8760;52.248;20.952;2022-08-19T09:48:51;11.60;;;6.47;;
17283;SDS011;8760;52.248;20.952;2022-08-19T09:51:19;11.13;;;7.07;;
17283;SDS011;8760;52.248;20.952;2022-08-19T09:53:48;12.27;;;7.15;;
17283;SDS011;8760;52.248;20.952;2022-08-19T09:56:16;10.95;;;7.38;;
17283;SDS011;8760;52.248;20.952;2022-08-19T09:58:45;11.77;;;6.85;;
17283;SDS011;8760;52.248;20.952;2022-08-19T10:01:17;13.77;;;7.68;;
17283;SDS011;8760;52.248;20.952;2022-08-19T10:03:47;13.25;;;7.32;;
17283;SDS011;8760;52.248;20.952;2022-08-19T10:06:16;11.80;;;7.55;;
17283;SDS011;8760;52.248;20.952;2022-08-19T10:08:43;9.82;;;7.05;;
17283;SDS011;8760;52.248;20.952;2022-08-19T10:11:10;14.13;;;7.50;;
17283;SDS011;8760;52.248;20.952;2022-08-19T10:13:39;9.20;;;6.47;;
17283;SDS011;8760;52.248;20.952;2022-08-19T10:16:08;9.68;;;7.05;;
17283;SDS011;8760;52.248;20.952;2022-08-19T10:18:37;9.98;;;7.00;;
17283;SDS011;8760;52.248;20.952;2022-08-19T10:21:08;8.13;;;6.75;;
17283;SDS011;8760;52.248;20.952;2022-08-19T10:23:37;10.38;;;7.72;;
17283;SDS011;8760;52.248;20.952;2022-08-19T10:26:05;13.20;;;7.50;;
17283;SDS011;8760;52.248;20.952;2022-08-19T10:28:33;12.60;;;7.30;;
17283;SDS011;8760;52.248;20.952;2022-08-19T10:31:05;10.68;;;7.05;;
17283;SDS011;8760;52.248;20.952;2022-08-19T10:33:33;12.25;;;6.50;;
17283;SDS011;8760;52.248;20.952;2022-08-19T10:36:02;11.18;;;7.70;;
17283;SDS011;8760;52.248;20.952;2022-08-19T10:38:29;11.32;;;6.60;;
17283;SDS011;8760;52.248;20.952;2022-08-19T10:40:56;9.80;;;6.88;;
17283;SDS011;8760;52.248;20.952;2022-08-19T10:43:23;8.15;;;6.55;;
17283;SDS011;8760;52.248;20.952;2022-08-19T10:45:53;10.65;;;7.28;;
17283;SDS011;8760;52.248;20.952;2022-08-19T10:48:24;8.88;;;6.63;;
17283;SDS011;8760;52.248;20.952;2022-08-19T10:50:50;12.38;;;7.13;;
17283;SDS011;8760;52.248;20.952;2022-08-19T10:53:36;12.38;;;7.05;;
17283;SDS011;8760;52.248;20.952;2022-08-19T10:56:03;12.20;;;7.18;;
17283;SDS011;8760;52.248;20.952;2022-08-19T10:58:47;12.80;;;6.82;;
17283;SDS011;8760;52.248;20.952;2022-08-19T11:01:14;12.52;;;6.82;;
17283;SDS011;8760;52.248;20.952;2022-08-19T11:03:41;13.32;;;6.65;;
17283;SDS011;8760;52.248;20.952;2022-08-19T11:06:10;10.15;;;6.53;;
17283;SDS011;8760;52.248;20.952;2022-08-19T11:08:39;13.68;;;10.43;;
17283;SDS011;8760;52.248;20.952;2022-08-19T11:11:07;13.48;;;7.03;;
17283;SDS011;8760;52.248;20.952;2022-08-19T11:13:36;9.88;;;6.40;;
17283;SDS011;8760;52.248;20.952;2022-08-19T11:16:06;10.70;;;7.10;;
17283;SDS011;8760;52.248;20.952;2022-08-19T11:18:35;17.00;;;6.35;;
17283;SDS011;8760;52.248;20.952;2022-08-19T11:21:06;10.52;;;6.72;;
17283;SDS011;8760;52.248;20.952;2022-08-19T11:23:35;8.75;;;6.72;;
17283;SDS011;8760;52.248;20.952;2022-08-19T11:26:03;9.63;;;6.30;;
17283;SDS011;8760;52.248;20.952;2022-08-19T11:28:30;10.73;;;6.90;;
17283;SDS011;8760;52.248;20.952;2022-08-19T11:30:57;11.57;;;7.40;;
17283;SDS011;8760;52.248;20.952;2022-08-19T11:33:23;14.82;;;7.18;;
17283;SDS011;8760;52.248;20.952;2022-08-19T11:35:51;10.32;;;6.80;;
17283;SDS011;8760;52.248;20.952;2022-08-19T11:38:18;8.07;;;6.30;;
17283;SDS011;8760;52.248;20.952;2022-08-19T11:40:53;10.32;;;7.22;;
17283;SDS011;8760;52.248;20.952;2022-08-19T11:43:22;9.68;;;6.93;;
17283;SDS011;8760;52.248;20.952;2022-08-19T11:45:49;11.48;;;7.38;;
17283;SDS011;8760;52.248;20.952;2022-08-19T11:48:16;11.88;;;7.57;;
17283;SDS011;8760;52.248;20.952;2022-08-19T11:50:47;10.30;;;7.28;;
17283;SDS011;8760;52.248;20.952;2022-08-19T11:53:14;10.98;;;7.13;;
17283;SDS011;8760;52.248;20.952;2022-08-19T11:55:43;11.05;;;7.35;;
17283;SDS011;8760;52.248;20.952;2022-08-19T11:58:10;13.43;;;6.95;;
17283;SDS011;8760;52.248;20.952;2022-08-19T12:00:39;11.60;;;6.93;;
17283;SDS011;8760;52.248;20.952;2022-08-19T12:03:06;9.40;;;6.75;;
17283;SDS011;8760;52.248;20.952;2022-08-19T12:05:36;9.80;;;6.65;;
17283;SDS011;8760;52.248;20.952;2022-08-19T12:08:03;10.05;;;7.10;;
17283;SDS011;8760;52.248;20.952;2022-08-19T12:10:30;13.10;;;7.10;;
17283;SDS011;8760;52.248;20.952;2022-08-19T12:12:57;12.00;;;6.70;;
17283;SDS011;8760;52.248;20.952;2022-08-19T12:15:24;12.57;;;7.28;;
17283;SDS011;8760;52.248;20.952;2022-08-19T12:17:54;10.55;;;8.07;;
17283;SDS011;8760;52.248;20.952;2022-08-19T12:20:21;11.30;;;8.20;;
17283;SDS011;8760;52.248;20.952;2022-08-19T12:22:49;12.90;;;7.22;;
17283;SDS011;8760;52.248;20.952;2022-08-19T12:25:16;10.38;;;6.85;;
17283;SDS011;8760;52.248;20.952;2022-08-19T12:27:44;12.27;;;6.88;;
17283;SDS011;8760;52.248;20.952;2022-08-19T12:30:11;11.43;;;6.15;;
17283;SDS011;8760;52.248;20.952;2022-08-19T12:32:39;11.05;;;6.15;;
17283;SDS011;8760;52.248;20.952;2022-08-19T12:35:07;10.77;;;7.90;;
17283;SDS011;8760;52.248;20.952;2022-08-19T12:37:36;9.77;;;7.13;;
17283;SDS011;8760;52.248;20.952;2022-08-19T12:40:03;11.63;;;6.63;;
17283;SDS011;8760;52.248;20.952;2022-08-19T12:42:31;12.35;;;6.95;;
17283;SDS011;8760;52.248;20.952;2022-08-19T12:44:58;11.43;;;7.15;;
17283;SDS011;8760;52.248;20.952;2022-08-19T12:47:24;7.63;;;6.82;;
17283;SDS011;8760;52.248;20.952;2022-08-19T12:49:51;14.38;;;7.00;;
17283;SDS011;8760;52.248;20.952;2022-08-19T12:52:20;10.48;;;6.68;;
17283;SDS011;8760;52.248;20.952;2022-08-19T12:54:48;8.65;;;6.95;;
17283;SDS011;8760;52.248;20.952;2022-08-19T12:57:15;10.38;;;6.10;;
17283;SDS011;8760;52.248;20.952;2022-08-19T12:59:42;10.23;;;6.50;;
17283;SDS011;8760;52.248;20.952;2022-08-19T13:02:09;12.30;;;6.30;;
17283;SDS011;8760;52.248;20.952;2022-08-19T13:04:36;12.10;;;6.40;;
17283;SDS011;8760;52.248;20.952;2022-08-19T13:07:06;9.80;;;6.43;;
17283;SDS011;8760;52.248;20.952;2022-08-19T13:09:35;10.07;;;6.65;;
17283;SDS011;8760;52.248;20.952;2022-08-19T13:12:02;9.43;;;6.65;;
17283;SDS011;8760;52.248;20.952;2022-08-19T13:14:32;9.55;;;6.97;;
17283;SDS011;8760;52.248;20.952;2022-08-19T13:17:01;9.90;;;6.75;;
17283;SDS011;8760;52.248;20.952;2022-08-19T13:19:27;7.53;;;6.03;;
17283;SDS011;8760;52.248;20.952;2022-08-19T13:21:55;7.93;;;6.40;;
17283;SDS011;8760;52.248;20.952;2022-08-19T13:24:23;12.25;;;6.40;;
17283;SDS011;8760;52.248;20.952;2022-08-19T13:26:51;11.40;;;6.43;;
17283;SDS011;8760;52.248;20.952;2022-08-19T13:29:18;12.30;;;6.50;;
17283;SDS011;8760;52.248;20.952;2022-08-19T13:32:02;9.60;;;6.40;;
17283;SDS011;8760;52.248;20.952;2022-08-19T13:34:47;9.38;;;6.00;;
17283;SDS011;8760;52.248;20.952;2022-08-19T13:37:13;9.13;;;5.70;;
17283;SDS011;8760;52.248;20.952;2022-08-19T13:39:40;11.30;;;6.20;;
17283;SDS011;8760;52.248;20.952;2022-08-19T13:42:08;16.13;;;6.85;;
17283;SDS011;8760;52.248;20.952;2022-08-19T13:44:35;8.05;;;6.38;;
17283;SDS011;8760;52.248;20.952;2022-08-19T13:47:03;10.00;;;5.75;;
17283;SDS011;8760;52.248;20.952;2022-08-19T13:49:31;8.43;;;6.20;;
17283;SDS011;8760;52.248;20.952;2022-08-19T13:51:59;8.18;;;6.68;;
17283;SDS011;8760;52.248;20.952;2022-08-19T13:54:26;8.02;;;6.00;;
17283;SDS011;8760;52.248;20.952;2022-08-19T13:56:53;11.48;;;6.15;;
17283;SDS011;8760;52.248;20.952;2022-08-19T13:59:21;11.00;;;6.10;;
17283;SDS011;8760;52.248;20.952;2022-08-19T14:01:48;11.77;;;6.28;;
17283;SDS011;8760;52.248;20.952;2022-08-19T14:04:15;10.77;;;5.82;;
17283;SDS011;8760;52.248;20.952;2022-08-19T14:06:41;10.18;;;5.82;;
17283;SDS011;8760;52.248;20.952;2022-08-19T14:09:08;10.93;;;6.03;;
17283;SDS011;8760;52.248;20.952;2022-08-19T14:11:35;10.52;;;5.95;;
17283;SDS011;8760;52.248;20.952;2022-08-19T14:14:02;9.43;;;5.63;;
17283;SDS011;8760;52.248;20.952;2022-08-19T14:16:30;14.02;;;6.22;;
17283;SDS011;8760;52.248;20.952;2022-08-19T14:18:57;11.75;;;6.32;;
17283;SDS011;8760;52.248;20.952;2022-08-19T14:21:24;8.00;;;5.90;;
17283;SDS011;8760;52.248;20.952;2022-08-19T14:23:51;9.05;;;6.13;;
17283;SDS011;8760;52.248;20.952;2022-08-19T14:26:18;6.15;;;5.55;;
17283;SDS011;8760;52.248;20.952;2022-08-19T14:28:46;10.60;;;5.30;;
17283;SDS011;8760;52.248;20.952;2022-08-19T14:31:15;6.32;;;5.43;;
17283;SDS011;8760;52.248;20.952;2022-08-19T14:33:46;12.40;;;5.68;;
17283;SDS011;8760;52.248;20.952;2022-08-19T14:36:13;13.70;;;5.22;;
17283;SDS011;8760;52.248;20.952;2022-08-19T14:38:41;7.70;;;5.43;;
17283;SDS011;8760;52.248;20.952;2022-08-19T14:41:09;5.82;;;5.15;;